createdAt,value
2019-01-31T00:00:46.832Z,31.10
2019-01-31T00:04:00.067Z,31.10
2019-01-31T00:06:53.300Z,31.10
2019-01-31T00:09:55.736Z,31.10
2019-01-31T00:13:08.668Z,31.10
2019-01-31T00:16:36.399Z,31.10
2019-01-31T00:19:46.243Z,31.10
2019-01-31T00:22:42.766Z,31.00
2019-01-31T00:26:01.860Z,31.00
2019-01-31T00:29:02.841Z,31.00
2019-01-31T00:32:28.997Z,31.00
2019-01-31T00:35:49.202Z,31.00
2019-01-31T00:39:08.977Z,31.00
2019-01-31T00:42:02.784Z,31.00
2019-01-31T00:45:14.549Z,31.00
2019-01-31T00:48:18.494Z,31.00
2019-01-31T00:51:08.302Z,31.00
2019-01-31T00:54:24.739Z,31.00
2019-01-31T00:57:45.785Z,31.00
2019-01-31T01:01:06.903Z,31.00
2019-01-31T01:04:20.791Z,31.10
2019-01-31T01:07:23.034Z,31.10
2019-01-31T01:10:40.151Z,31.10
2019-01-31T01:14:05.525Z,31.10
2019-01-31T01:17:18.311Z,31.10
2019-01-31T01:20:20.407Z,31.10
2019-01-31T01:23:36.562Z,31.10
2019-01-31T01:26:41.985Z,31.20
2019-01-31T01:29:52.851Z,31.20
2019-01-31T01:33:08.687Z,31.30
2019-01-31T01:36:25.187Z,31.30
2019-01-31T01:39:40.921Z,31.30
2019-01-31T01:42:43.428Z,31.40
2019-01-31T01:45:38.692Z,31.40
2019-01-31T01:48:39.000Z,31.40
2019-01-31T01:51:42.278Z,31.40
2019-01-31T01:55:11.325Z,31.40
2019-01-31T01:58:15.248Z,31.40
2019-01-31T02:01:24.694Z,31.40
2019-01-31T02:04:26.203Z,31.40
2019-01-31T02:07:14.846Z,31.50
2019-01-31T02:10:21.440Z,31.50
2019-01-31T02:13:37.585Z,31.50
2019-01-31T02:16:59.912Z,31.50
2019-01-31T02:20:05.910Z,31.50
2019-01-31T02:23:28.576Z,31.50
2019-01-31T02:26:45.995Z,31.50
2019-01-31T02:36:45.685Z,31.60
2019-01-31T02:39:43.084Z,31.60
2019-01-31T02:42:49.327Z,31.70
2019-01-31T02:45:54.747Z,31.60
2019-01-31T02:49:09.740Z,31.70
2019-01-31T02:52:18.093Z,31.70
2019-01-31T02:55:44.287Z,31.70
2019-01-31T02:58:53.106Z,31.70
2019-01-31T03:02:12.935Z,31.70
2019-01-31T03:05:19.243Z,31.70
2019-01-31T03:08:45.690Z,31.70
2019-01-31T03:11:57.754Z,31.70
2019-01-31T03:14:46.309Z,31.70
2019-01-31T03:17:29.773Z,31.70
2019-01-31T03:20:29.674Z,31.70
2019-01-31T03:23:43.661Z,31.80
2019-01-31T03:26:32.185Z,31.80
2019-01-31T03:29:31.283Z,31.80
2019-01-31T03:32:39.880Z,31.80
2019-01-31T03:35:36.796Z,31.90
2019-01-31T03:38:42.652Z,31.90
2019-01-31T03:41:38.786Z,31.90
2019-01-31T03:44:34.857Z,31.90
2019-01-31T03:47:31.961Z,32.00
2019-01-31T03:50:58.277Z,32.00
2019-01-31T03:54:15.347Z,32.00
2019-01-31T03:57:13.273Z,32.00
2019-01-31T04:00:34.258Z,32.10
2019-01-31T04:03:36.827Z,32.10
2019-01-31T04:06:19.491Z,32.10
2019-01-31T04:08:54.255Z,32.10
2019-01-31T04:11:29.345Z,32.10
2019-01-31T04:14:06.451Z,32.10
2019-01-31T04:16:40.778Z,32.20
2019-01-31T04:19:15.720Z,32.20
2019-01-31T04:21:50.176Z,32.20
2019-01-31T04:24:24.985Z,32.20
2019-01-31T04:26:59.865Z,32.30
2019-01-31T04:29:34.802Z,32.30
2019-01-31T04:32:10.168Z,32.20
2019-01-31T04:34:44.776Z,32.30
2019-01-31T04:37:20.003Z,32.30
2019-01-31T04:39:54.930Z,32.30
2019-01-31T04:42:29.538Z,32.30
2019-01-31T04:45:04.046Z,32.30
2019-01-31T04:47:39.194Z,32.30
2019-01-31T04:50:15.595Z,32.30
2019-01-31T04:52:50.295Z,32.30
2019-01-31T04:55:24.489Z,32.30
2019-01-31T04:57:59.330Z,32.30
2019-01-31T05:00:34.070Z,32.30
2019-01-31T05:03:08.768Z,32.30
2019-01-31T05:05:43.357Z,32.30
2019-01-31T05:08:17.943Z,32.40
2019-01-31T05:10:54.652Z,32.40
2019-01-31T05:13:29.380Z,32.30
2019-01-31T05:16:04.554Z,32.20
2019-01-31T05:18:39.287Z,32.10
2019-01-31T05:21:13.885Z,32.00
2019-01-31T05:23:48.915Z,31.80
2019-01-31T05:26:23.371Z,31.80
2019-01-31T05:28:58.590Z,31.50
2019-01-31T05:31:33.531Z,31.40
2019-01-31T05:34:07.971Z,31.30
2019-01-31T05:36:46.433Z,31.20
2019-01-31T05:39:21.016Z,31.10
2019-01-31T05:41:56.010Z,31.10
2019-01-31T05:44:30.519Z,30.90
2019-01-31T05:47:05.681Z,30.80
2019-01-31T05:49:40.261Z,30.80
2019-01-31T05:52:15.227Z,30.70
2019-01-31T05:54:50.201Z,30.70
2019-01-31T05:57:25.171Z,30.60
2019-01-31T05:59:59.837Z,30.60
2019-01-31T06:02:36.675Z,30.70
2019-01-31T06:05:12.950Z,30.80
2019-01-31T06:07:47.702Z,30.80
2019-01-31T06:10:28.971Z,30.90
2019-01-31T06:13:03.669Z,31.00
2019-01-31T06:15:38.835Z,31.10
2019-01-31T06:18:13.611Z,31.20
2019-01-31T06:20:48.230Z,31.40
2019-01-31T06:23:22.461Z,31.40
2019-01-31T06:25:57.586Z,31.50
2019-01-31T06:28:32.177Z,31.70
2019-01-31T06:31:08.974Z,31.70
2019-01-31T06:33:43.765Z,31.80
2019-01-31T06:36:18.650Z,31.90
2019-01-31T06:38:52.948Z,32.00
2019-01-31T06:41:27.524Z,32.10
2019-01-31T06:44:02.219Z,32.20
2019-01-31T06:46:37.216Z,32.20
2019-01-31T06:49:11.826Z,32.30
2019-01-31T06:51:46.500Z,32.30
2019-01-31T06:54:40.196Z,32.40
2019-01-31T06:57:14.498Z,32.50
2019-01-31T06:59:49.260Z,32.50
2019-01-31T07:02:23.965Z,32.60
2019-01-31T07:04:58.657Z,32.60
2019-01-31T07:07:34.024Z,32.60
2019-01-31T07:10:28.938Z,32.70
2019-01-31T07:13:03.626Z,32.80
2019-01-31T07:15:38.227Z,32.80
2019-01-31T07:18:13.168Z,32.80
2019-01-31T07:20:47.501Z,32.90
2019-01-31T07:23:21.880Z,32.90
2019-01-31T07:25:56.735Z,33.00
2019-01-31T07:28:32.229Z,33.00
2019-01-31T07:31:07.165Z,33.00
2019-01-31T07:33:42.149Z,33.10
2019-01-31T07:36:16.970Z,33.10
2019-01-31T07:38:52.441Z,33.10
2019-01-31T07:41:27.304Z,33.20
2019-01-31T07:44:01.944Z,33.10
2019-01-31T07:46:36.690Z,33.20
2019-01-31T07:49:43.326Z,33.20
2019-01-31T07:52:18.874Z,33.30
2019-01-31T07:54:53.638Z,33.30
2019-01-31T07:57:28.267Z,33.30
2019-01-31T08:00:03.093Z,33.40
2019-01-31T08:02:37.687Z,33.30
2019-01-31T08:05:14.835Z,33.30
2019-01-31T08:07:49.548Z,33.30
2019-01-31T08:10:35.865Z,33.40
2019-01-31T08:13:10.398Z,33.40
2019-01-31T08:15:45.376Z,33.40
2019-01-31T08:18:19.961Z,33.40
2019-01-31T08:20:55.069Z,33.50
2019-01-31T08:23:29.730Z,33.50
2019-01-31T08:26:04.820Z,33.60
2019-01-31T08:28:40.069Z,33.60
2019-01-31T08:31:14.835Z,33.60
2019-01-31T08:33:49.627Z,33.60
2019-01-31T08:36:44.124Z,33.60
2019-01-31T08:39:19.588Z,33.70
2019-01-31T08:42:03.528Z,33.70
2019-01-31T08:44:30.346Z,33.70
2019-01-31T08:47:05.418Z,33.70
2019-01-31T08:49:40.015Z,33.80
2019-01-31T08:52:14.957Z,33.80
2019-01-31T08:54:49.796Z,33.80
2019-01-31T08:57:24.696Z,33.80
2019-01-31T08:59:59.811Z,33.90
2019-01-31T09:02:34.479Z,33.90
2019-01-31T09:05:09.552Z,33.90
2019-01-31T09:07:44.009Z,33.90
2019-01-31T09:10:20.944Z,33.90
2019-01-31T09:12:55.482Z,33.90
2019-01-31T09:15:32.121Z,34.00
2019-01-31T09:18:06.867Z,34.00
2019-01-31T09:20:57.364Z,33.90
2019-01-31T09:24:17.557Z,34.00
2019-01-31T09:27:37.747Z,34.00
2019-01-31T09:31:00.617Z,34.00
2019-01-31T09:34:36.930Z,34.00
2019-01-31T09:37:53.717Z,34.00
2019-01-31T09:41:09.443Z,34.00
2019-01-31T09:44:09.210Z,34.00
2019-01-31T09:47:19.789Z,34.00
2019-01-31T09:50:38.511Z,34.00
2019-01-31T09:53:57.157Z,34.00
2019-01-31T09:56:53.559Z,34.00
2019-01-31T09:59:56.039Z,33.90
2019-01-31T10:03:04.388Z,33.90
2019-01-31T10:06:12.525Z,33.90
2019-01-31T10:09:27.084Z,33.90
2019-01-31T10:12:38.598Z,33.80
2019-01-31T10:15:39.524Z,33.80
2019-01-31T10:18:59.372Z,33.80
2019-01-31T10:22:05.657Z,33.80
2019-01-31T10:25:17.271Z,33.80
2019-01-31T10:28:13.780Z,33.80
2019-01-31T10:30:58.359Z,33.80
2019-01-31T10:34:02.334Z,33.80
2019-01-31T10:36:50.798Z,33.70
2019-01-31T10:40:09.047Z,33.70
2019-01-31T10:43:13.392Z,33.70
2019-01-31T10:46:14.006Z,33.70
2019-01-31T10:49:48.969Z,33.70
2019-01-31T10:52:46.451Z,33.70
2019-01-31T10:56:04.939Z,33.70
2019-01-31T10:59:12.699Z,33.60
2019-01-31T11:02:10.830Z,33.60
2019-01-31T11:05:28.514Z,33.60
2019-01-31T11:08:46.947Z,33.60
2019-01-31T11:12:16.443Z,33.60
2019-01-31T11:15:15.345Z,33.60
2019-01-31T11:18:35.437Z,33.60
2019-01-31T11:21:34.883Z,33.50
2019-01-31T11:24:57.049Z,33.50
2019-01-31T11:28:26.238Z,33.50
2019-01-31T11:31:43.448Z,33.50
2019-01-31T11:34:43.266Z,33.40
2019-01-31T11:37:59.223Z,33.40
2019-01-31T11:41:07.260Z,33.20
2019-01-31T11:44:26.729Z,33.00
2019-01-31T11:47:33.043Z,32.90
2019-01-31T11:50:30.025Z,32.60
2019-01-31T11:53:34.466Z,32.30
2019-01-31T11:56:29.798Z,32.10
2019-01-31T11:59:08.594Z,31.90
2019-01-31T12:01:43.957Z,31.70
2019-01-31T12:04:23.194Z,31.50
2019-01-31T12:07:00.875Z,31.40
2019-01-31T12:09:35.279Z,31.30
2019-01-31T12:12:10.506Z,31.20
2019-01-31T12:14:45.368Z,31.10
2019-01-31T12:20:07.350Z,30.90
2019-01-31T12:22:41.981Z,30.90
2019-01-31T12:25:16.482Z,30.80
2019-01-31T12:27:51.207Z,30.70
2019-01-31T12:30:30.203Z,30.60
2019-01-31T12:33:04.801Z,30.60
2019-01-31T12:35:58.889Z,30.60
2019-01-31T12:38:36.850Z,30.60
2019-01-31T12:41:09.891Z,30.50
2019-01-31T12:44:03.554Z,30.50
2019-01-31T12:46:38.477Z,30.50
2019-01-31T12:49:13.508Z,30.50
2019-01-31T12:51:48.039Z,30.40
2019-01-31T12:54:22.984Z,30.40
2019-01-31T12:57:16.821Z,30.40
2019-01-31T12:59:51.453Z,30.40
2019-01-31T13:02:25.964Z,30.40
2019-01-31T13:05:18.762Z,30.40
2019-01-31T13:07:53.831Z,30.40
2019-01-31T13:10:47.378Z,30.30
2019-01-31T13:13:22.599Z,30.30
2019-01-31T13:15:57.374Z,30.30
2019-01-31T13:18:32.342Z,30.30
2019-01-31T13:21:07.208Z,30.30
2019-01-31T13:24:01.801Z,30.30
2019-01-31T13:26:36.552Z,30.30
2019-01-31T13:29:11.051Z,30.20
2019-01-31T13:31:46.238Z,30.20
2019-01-31T13:34:21.048Z,30.20
2019-01-31T13:36:55.880Z,30.20
2019-01-31T13:39:30.126Z,30.20
2019-01-31T13:42:05.392Z,30.20
2019-01-31T13:44:40.062Z,30.20
2019-01-31T13:47:14.795Z,30.20
2019-01-31T13:49:49.451Z,30.20
2019-01-31T13:52:24.864Z,30.20
2019-01-31T13:54:59.629Z,30.20
2019-01-31T13:57:33.827Z,30.10
2019-01-31T14:00:09.322Z,30.20
2019-01-31T14:02:43.832Z,30.20
2019-01-31T14:05:18.839Z,30.20
2019-01-31T14:07:54.491Z,30.20
2019-01-31T14:10:30.155Z,30.10
2019-01-31T14:13:05.801Z,30.20
2019-01-31T14:15:41.057Z,30.20
2019-01-31T14:18:15.820Z,30.30
2019-01-31T14:21:09.606Z,30.40
2019-01-31T14:23:44.526Z,30.50
2019-01-31T14:26:19.540Z,30.60
2019-01-31T14:28:54.276Z,30.70
2019-01-31T14:31:28.648Z,30.70
2019-01-31T14:34:03.494Z,30.80
2019-01-31T14:36:38.046Z,30.90
2019-01-31T14:39:13.255Z,31.00
2019-01-31T14:41:47.522Z,31.00
2019-01-31T14:44:22.401Z,31.10
2019-01-31T14:46:57.014Z,31.20
2019-01-31T14:49:31.811Z,31.30
2019-01-31T14:52:07.180Z,31.30
2019-01-31T14:54:41.840Z,31.40
2019-01-31T14:57:16.678Z,31.40
2019-01-31T14:59:51.480Z,31.50
2019-01-31T15:02:26.171Z,31.50
2019-01-31T15:05:00.993Z,31.60
2019-01-31T15:07:36.058Z,31.70
2019-01-31T15:10:13.144Z,31.70
2019-01-31T15:12:47.476Z,31.70
2019-01-31T15:15:22.662Z,31.70
2019-01-31T15:17:57.280Z,31.70
2019-01-31T15:20:38.477Z,31.80
2019-01-31T15:23:13.590Z,31.80
2019-01-31T15:25:48.370Z,31.80
2019-01-31T15:28:42.022Z,31.80
2019-01-31T15:31:16.916Z,31.90
2019-01-31T15:33:51.662Z,31.90
2019-01-31T15:36:26.836Z,31.90
2019-01-31T15:39:01.423Z,32.00
2019-01-31T15:41:36.334Z,32.00
2019-01-31T15:44:11.005Z,32.00
2019-01-31T15:46:46.039Z,32.00
2019-01-31T15:49:20.688Z,32.00
2019-01-31T15:51:55.076Z,32.00
2019-01-31T15:54:30.687Z,32.00
2019-01-31T15:57:16.182Z,32.00
2019-01-31T15:59:41.542Z,32.00
2019-01-31T16:02:16.349Z,32.00
2019-01-31T16:04:51.463Z,32.00
2019-01-31T16:07:26.231Z,32.10
2019-01-31T16:10:01.215Z,32.10
2019-01-31T16:12:35.823Z,32.10
2019-01-31T16:15:11.484Z,32.00
2019-01-31T16:17:46.250Z,32.10
2019-01-31T16:20:20.837Z,32.00
2019-01-31T16:22:55.288Z,32.00
2019-01-31T16:25:29.929Z,32.10
2019-01-31T16:28:04.965Z,32.10
2019-01-31T16:30:39.806Z,32.10
2019-01-31T16:33:19.557Z,32.10
2019-01-31T16:35:58.743Z,32.10
2019-01-31T16:38:52.740Z,32.10
2019-01-31T16:41:27.523Z,32.10
2019-01-31T16:44:02.227Z,32.10
2019-01-31T16:46:55.740Z,32.10
2019-01-31T16:49:30.441Z,32.10
2019-01-31T16:52:05.098Z,32.10
2019-01-31T16:54:40.029Z,32.10
2019-01-31T16:57:14.434Z,32.10
2019-01-31T16:59:49.279Z,32.10
2019-01-31T17:02:24.993Z,32.10
2019-01-31T17:05:00.438Z,32.10
2019-01-31T17:07:54.079Z,32.10
2019-01-31T17:10:29.280Z,32.10
2019-01-31T17:13:04.342Z,32.10
2019-01-31T17:15:39.229Z,32.10
2019-01-31T17:18:14.136Z,32.10
2019-01-31T17:20:50.009Z,32.10
2019-01-31T17:23:24.739Z,32.00
2019-01-31T17:25:59.471Z,32.10
2019-01-31T17:28:34.706Z,32.00
2019-01-31T17:31:09.165Z,32.10
2019-01-31T17:33:44.069Z,32.10
2019-01-31T17:36:18.858Z,32.00
2019-01-31T17:38:53.730Z,32.00
2019-01-31T17:41:28.016Z,32.10
2019-01-31T17:44:02.758Z,32.00
2019-01-31T17:46:37.483Z,32.00
2019-01-31T17:49:31.178Z,32.10
2019-01-31T17:52:05.577Z,32.00
2019-01-31T17:54:40.645Z,32.00
2019-01-31T17:57:14.887Z,32.00
2019-01-31T17:59:50.130Z,32.00
2019-01-31T18:02:25.017Z,32.00
2019-01-31T18:04:59.724Z,32.00
2019-01-31T18:07:53.478Z,32.00
2019-01-31T18:10:27.985Z,32.00
2019-01-31T18:13:05.543Z,32.00
2019-01-31T18:15:42.226Z,32.00
2019-01-31T18:18:15.656Z,32.00
2019-01-31T18:20:50.467Z,32.00
2019-01-31T18:23:45.443Z,32.00
2019-01-31T18:26:19.438Z,32.00
2019-01-31T18:28:54.581Z,32.00
2019-01-31T18:31:28.995Z,32.00
2019-01-31T18:34:03.917Z,32.00
2019-01-31T18:36:38.445Z,32.00
2019-01-31T18:39:14.475Z,32.00
2019-01-31T18:41:49.523Z,32.00
2019-01-31T18:44:24.256Z,32.00
2019-01-31T18:47:17.681Z,32.00
2019-01-31T18:49:52.363Z,31.90
2019-01-31T18:52:27.139Z,32.00
2019-01-31T18:55:01.984Z,32.00
2019-01-31T18:57:36.604Z,32.00
2019-01-31T19:03:27.708Z,31.90
2019-01-31T19:06:02.377Z,31.90
2019-01-31T19:08:37.849Z,31.90
2019-01-31T19:11:12.464Z,31.90
2019-01-31T19:13:48.529Z,31.90
2019-01-31T19:16:24.202Z,31.90
2019-01-31T19:18:58.759Z,31.90
2019-01-31T19:21:34.321Z,31.90
2019-01-31T19:24:09.345Z,31.90
2019-01-31T19:26:44.555Z,31.90
2019-01-31T19:29:20.082Z,31.90
2019-01-31T19:31:54.509Z,31.90
2019-01-31T19:34:29.570Z,31.90
2019-01-31T19:37:04.363Z,31.90
2019-01-31T19:39:39.342Z,31.90
2019-01-31T19:42:14.031Z,31.90
2019-01-31T19:44:48.900Z,31.90
2019-01-31T19:47:23.269Z,31.80
2019-01-31T19:49:58.139Z,31.90
2019-01-31T19:52:32.891Z,31.90
2019-01-31T19:55:07.609Z,31.80
2019-01-31T19:57:42.228Z,31.80
2019-01-31T20:00:18.566Z,31.80
2019-01-31T20:02:53.580Z,31.90
2019-01-31T20:05:28.167Z,31.80
2019-01-31T20:08:02.628Z,31.80
2019-01-31T20:10:37.195Z,31.80
2019-01-31T20:13:12.009Z,31.80
2019-01-31T20:15:47.217Z,31.80
2019-01-31T20:18:22.148Z,31.80
2019-01-31T20:20:56.846Z,31.80
2019-01-31T20:23:32.320Z,31.80
2019-01-31T20:26:07.295Z,31.80
2019-01-31T20:28:41.786Z,31.80
2019-01-31T20:31:18.440Z,31.80
2019-01-31T20:33:52.780Z,31.80
2019-01-31T20:36:27.476Z,31.80
2019-01-31T20:39:01.798Z,31.80
2019-01-31T20:41:36.415Z,31.80
2019-01-31T20:44:11.229Z,31.80
2019-01-31T20:46:46.495Z,31.80
2019-01-31T20:49:21.077Z,31.80
2019-01-31T20:51:55.701Z,31.70
2019-01-31T20:54:30.615Z,31.80
2019-01-31T20:57:24.472Z,31.70
2019-01-31T20:59:58.890Z,31.70
2019-01-31T21:02:33.669Z,31.70
2019-01-31T21:05:08.264Z,31.70
2019-01-31T21:07:43.276Z,31.70
2019-01-31T21:10:17.847Z,31.70
2019-01-31T21:12:53.011Z,31.70
2019-01-31T21:15:30.183Z,31.70
2019-01-31T21:18:05.311Z,31.70
2019-01-31T21:20:40.051Z,31.70
2019-01-31T21:23:15.337Z,31.70
2019-01-31T21:25:52.542Z,31.70
2019-01-31T21:28:27.219Z,31.70
2019-01-31T21:31:02.104Z,31.70
2019-01-31T21:33:36.896Z,31.70
2019-01-31T21:36:11.298Z,31.70
2019-01-31T21:38:46.312Z,31.70
2019-01-31T21:41:21.094Z,31.70
2019-01-31T21:43:55.974Z,31.60
2019-01-31T21:46:30.711Z,31.60
2019-01-31T21:49:05.493Z,31.60
2019-01-31T21:51:39.929Z,31.60
2019-01-31T21:54:14.746Z,31.60
2019-01-31T21:57:07.536Z,31.60
2019-01-31T21:59:42.226Z,31.60
2019-01-31T22:02:16.966Z,31.70
2019-01-31T22:04:52.251Z,31.60
2019-01-31T22:07:27.239Z,31.60
2019-01-31T22:10:02.043Z,31.60
2019-01-31T22:12:36.881Z,31.60
2019-01-31T22:15:14.946Z,31.60
2019-01-31T22:17:49.375Z,31.60
2019-01-31T22:20:24.722Z,31.50
2019-01-31T22:22:59.192Z,31.50
2019-01-31T22:25:33.825Z,31.50
2019-01-31T22:28:08.580Z,31.60
2019-01-31T22:30:43.911Z,31.60
2019-01-31T22:33:18.427Z,31.50
2019-01-31T22:35:53.383Z,31.50
2019-01-31T22:38:47.164Z,31.50
2019-01-31T22:41:21.812Z,31.50
2019-01-31T22:43:57.260Z,31.50
2019-01-31T22:46:32.128Z,31.50
2019-01-31T22:49:07.068Z,31.50
2019-01-31T22:51:41.481Z,31.50
2019-01-31T22:54:16.378Z,31.50
2019-01-31T22:56:50.800Z,31.50
2019-01-31T22:59:25.615Z,31.50
2019-01-31T23:02:05.646Z,31.50
2019-01-31T23:04:40.071Z,31.50
2019-01-31T23:07:14.738Z,31.50
2019-01-31T23:09:49.421Z,31.50
2019-01-31T23:12:43.180Z,31.50
2019-01-31T23:15:18.022Z,31.50
2019-01-31T23:17:53.934Z,31.50
2019-01-31T23:20:30.564Z,31.50
2019-01-31T23:23:24.262Z,31.40
2019-01-31T23:25:59.088Z,31.40
2019-01-31T23:28:59.949Z,31.50
2019-01-31T23:31:34.583Z,31.40
2019-01-31T23:34:09.291Z,31.40
2019-01-31T23:36:44.157Z,31.40
2019-01-31T23:39:18.601Z,31.40
2019-01-31T23:41:53.721Z,31.40
2019-01-31T23:44:28.257Z,31.40
2019-01-31T23:47:22.481Z,31.40
2019-01-31T23:49:56.926Z,31.40
2019-01-31T23:52:31.777Z,31.40
2019-01-31T23:55:06.616Z,31.40
2019-01-31T23:57:41.832Z,31.40
